Time,TemperatureF,DewpointF,PressureIn,WindDirection,WindDirectionDegrees,WindSpeedMPH,WindSpeedGustMPH,Humidity,HourlyPrecipIn,Conditions,Clouds,dailyrainin,SolarRadiationWatts/m^2,SoftwareType,DateUTC
2013-09-23 00:02:00,42.0,21.0,-100.00,NW,314,53.0,87.0,42,0.00,,,0.07,0.800000,,2013-09-23 08:02:00,
2013-09-23 00:11:00,42.0,21.0,-100.00,NW,314,53.0,87.0,42,0.00,,,0.07,0.800000,,2013-09-23 08:11:00,
2013-09-23 00:22:00,42.0,21.0,-100.00,NW,314,53.0,87.0,42,0.00,,,0.07,0.800000,,2013-09-23 08:22:00,
2013-09-23 00:52:00,42.0,18.0,-100.00,NW,312,57.0,75.0,39,0.00,,,0.04,0.800000,,2013-09-23 08:52:00,
2013-09-23 01:02:00,42.0,18.0,-100.00,NW,312,57.0,75.0,39,0.00,,,0.04,0.800000,,2013-09-23 09:02:00,
2013-09-23 01:11:00,42.0,18.0,-100.00,NW,312,57.0,75.0,39,0.00,,,0.04,0.800000,,2013-09-23 09:11:00,
2013-09-23 01:21:00,42.0,18.0,-100.00,NW,312,57.0,75.0,39,0.00,,,0.04,0.800000,,2013-09-23 09:21:00,
2013-09-23 01:53:00,42.0,18.0,-100.00,NW,314,55.0,77.0,38,0.00,,,0.02,0.800000,,2013-09-23 09:53:00,
2013-09-23 02:03:00,42.0,18.0,-100.00,NW,314,55.0,77.0,38,0.00,,,0.02,0.800000,,2013-09-23 10:03:00,
2013-09-23 02:12:00,42.0,18.0,-100.00,NW,314,55.0,77.0,38,0.00,,,0.02,0.800000,,2013-09-23 10:12:00,
2013-09-23 02:23:00,42.0,18.0,-100.00,NW,314,55.0,77.0,38,0.00,,,0.02,0.800000,,2013-09-23 10:23:00,
2013-09-23 02:52:00,42.0,19.0,-100.00,NW,315,57.0,77.0,40,0.00,,,0.01,0.800000,,2013-09-23 10:52:00,
2013-09-23 03:02:00,42.0,19.0,-100.00,NW,315,57.0,77.0,40,0.00,,,0.01,0.800000,,2013-09-23 11:02:00,
2013-09-23 03:12:00,42.0,19.0,-100.00,NW,315,57.0,77.0,40,0.00,,,0.01,0.800000,,2013-09-23 11:12:00,
2013-09-23 03:21:00,42.0,19.0,-100.00,NW,315,57.0,77.0,40,0.00,,,0.01,0.800000,,2013-09-23 11:21:00,
2013-09-23 03:52:00,41.0,19.0,-100.00,NW,313,59.0,84.0,41,0.00,,,0.00,0.800000,,2013-09-23 11:52:00,
2013-09-23 04:01:00,41.0,19.0,-100.00,NW,313,59.0,84.0,41,0.00,,,0.00,0.800000,,2013-09-23 12:01:00,
2013-09-23 04:11:00,41.0,19.0,-100.00,NW,313,59.0,84.0,41,0.00,,,0.00,0.800000,,2013-09-23 12:11:00,
2013-09-23 04:22:00,41.0,19.0,-100.00,NW,313,59.0,84.0,41,0.00,,,0.00,0.800000,,2013-09-23 12:22:00,
2013-09-23 04:52:00,41.0,18.0,-100.00,NW,312,58.0,79.0,39,0.00,,,0.00,0.800000,,2013-09-23 12:52:00,
2013-09-23 05:01:00,41.0,18.0,-100.00,NW,312,58.0,79.0,39,0.00,,,0.00,0.800000,,2013-09-23 13:01:00,
2013-09-23 05:11:00,41.0,18.0,-100.00,NW,312,58.0,79.0,39,0.00,,,0.00,0.800000,,2013-09-23 13:11:00,
2013-09-23 05:21:00,41.0,18.0,-100.00,NW,312,58.0,79.0,39,0.00,,,0.00,0.800000,,2013-09-23 13:21:00,
2013-09-23 05:52:00,40.0,17.0,-100.00,NW,313,55.0,83.0,39,0.00,,,0.00,0.800000,,2013-09-23 13:52:00,
2013-09-23 06:01:00,40.0,17.0,-100.00,NW,313,55.0,83.0,39,0.00,,,0.00,0.800000,,2013-09-23 14:01:00,
2013-09-23 06:11:00,40.0,17.0,-100.00,NW,313,55.0,83.0,39,0.00,,,0.00,0.800000,,2013-09-23 14:11:00,
2013-09-23 06:21:00,40.0,17.0,-100.00,NW,313,55.0,83.0,39,0.00,,,0.00,0.800000,,2013-09-23 14:21:00,
2013-09-23 06:52:00,41.0,20.0,-100.00,NW,315,56.0,78.0,42,0.00,,,0.00,0.800000,,2013-09-23 14:52:00,
2013-09-23 07:02:00,41.0,20.0,-100.00,NW,315,56.0,78.0,42,0.00,,,0.00,0.800000,,2013-09-23 15:02:00,
2013-09-23 07:11:00,41.0,20.0,-100.00,NW,315,56.0,78.0,42,0.00,,,0.00,0.800000,,2013-09-23 15:11:00,
2013-09-23 07:21:00,41.0,20.0,-100.00,NW,315,56.0,78.0,42,0.00,,,0.00,0.800000,,2013-09-23 15:21:00,
2013-09-23 07:54:00,41.0,20.0,-100.00,NW,313,56.0,76.0,43,0.00,,,0.00,0.800000,,2013-09-23 15:54:00,
2013-09-23 08:03:00,41.0,20.0,-100.00,NW,313,56.0,76.0,43,0.00,,,0.00,0.800000,,2013-09-23 16:03:00,
2013-09-23 08:12:00,41.0,20.0,-100.00,NW,313,56.0,76.0,43,0.00,,,0.00,0.800000,,2013-09-23 16:12:00,
2013-09-23 08:23:00,41.0,20.0,-100.00,NW,313,56.0,76.0,43,0.00,,,0.00,0.800000,,2013-09-23 16:23:00,
2013-09-23 08:53:00,40.0,20.0,-100.00,NW,314,54.0,75.0,44,0.00,,,0.00,5.600000,,2013-09-23 16:53:00,
2013-09-23 09:03:00,40.0,20.0,-100.00,NW,314,54.0,75.0,44,0.00,,,0.00,5.600000,,2013-09-23 17:03:00,
2013-09-23 09:12:00,40.0,20.0,-100.00,NW,314,54.0,75.0,44,0.00,,,0.00,5.600000,,2013-09-23 17:12:00,
2013-09-23 09:24:00,40.0,20.0,-100.00,NW,314,54.0,75.0,44,0.00,,,0.00,5.600000,,2013-09-23 17:24:00,
2013-09-23 09:52:00,41.0,21.0,-100.00,NW,313,45.0,73.0,44,0.00,,,0.00,25.100000,,2013-09-23 17:52:00,
2013-09-23 10:02:00,41.0,21.0,-100.00,NW,313,45.0,73.0,44,0.00,,,0.00,25.100000,,2013-09-23 18:02:00,
2013-09-23 10:12:00,41.0,21.0,-100.00,NW,313,45.0,73.0,44,0.00,,,0.00,25.100000,,2013-09-23 18:12:00,
2013-09-23 10:21:00,41.0,21.0,-100.00,NW,313,45.0,73.0,44,0.00,,,0.00,25.100000,,2013-09-23 18:21:00,
2013-09-23 10:52:00,40.0,25.0,-100.00,NW,314,47.0,67.0,53,0.00,,,0.00,51.700001,,2013-09-23 18:52:00,
2013-09-23 11:02:00,40.0,25.0,-100.00,NW,314,47.0,67.0,53,0.00,,,0.00,51.700001,,2013-09-23 19:02:00,
2013-09-23 11:12:00,40.0,25.0,-100.00,NW,314,47.0,67.0,53,0.00,,,0.00,51.700001,,2013-09-23 19:12:00,
2013-09-23 11:22:00,40.0,25.0,-100.00,NW,314,47.0,67.0,53,0.00,,,0.00,51.700001,,2013-09-23 19:22:00,
2013-09-23 11:53:00,41.0,26.0,-100.00,NW,319,41.0,71.0,54,0.00,,,0.00,57.099998,,2013-09-23 19:53:00,
2013-09-23 12:02:00,41.0,26.0,-100.00,NW,319,41.0,71.0,54,0.00,,,0.00,57.099998,,2013-09-23 20:02:00,
2013-09-23 12:12:00,41.0,26.0,-100.00,NW,319,41.0,71.0,54,0.00,,,0.00,57.099998,,2013-09-23 20:12:00,
2013-09-23 12:21:00,41.0,26.0,-100.00,NW,319,41.0,71.0,54,0.00,,,0.00,57.099998,,2013-09-23 20:21:00,
2013-09-23 12:52:00,42.0,26.0,-100.00,NW,324,31.0,60.0,54,0.00,,,0.00,99.099998,,2013-09-23 20:52:00,
2013-09-23 13:02:00,42.0,26.0,-100.00,NW,324,31.0,60.0,54,0.00,,,0.00,99.099998,,2013-09-23 21:02:00,
2013-09-23 13:11:00,42.0,26.0,-100.00,NW,324,31.0,60.0,54,0.00,,,0.00,99.099998,,2013-09-23 21:11:00,
2013-09-23 13:23:00,42.0,26.0,-100.00,NW,324,31.0,60.0,54,0.00,,,0.00,99.099998,,2013-09-23 21:23:00,
2013-09-23 13:54:00,42.0,31.0,-100.00,North,350,23.0,50.0,64,0.00,,,0.00,83.000000,,2013-09-23 21:54:00,
2013-09-23 14:03:00,42.0,31.0,-100.00,North,350,23.0,50.0,64,0.00,,,0.00,83.000000,,2013-09-23 22:03:00,
2013-09-23 14:13:00,42.0,31.0,-100.00,North,350,23.0,50.0,64,0.00,,,0.00,83.000000,,2013-09-23 22:13:00,
2013-09-23 14:23:00,42.0,31.0,-100.00,North,350,23.0,50.0,64,0.00,,,0.00,83.000000,,2013-09-23 22:23:00,
2013-09-23 14:54:00,43.0,35.0,-100.00,North,352,10.0,33.0,72,0.01,,,0.01,106.000000,,2013-09-23 22:54:00,
2013-09-23 15:02:00,43.0,35.0,-100.00,North,352,10.0,33.0,72,0.01,,,0.01,106.000000,,2013-09-23 23:02:00,
2013-09-23 15:12:00,43.0,35.0,-100.00,North,352,10.0,33.0,72,0.01,,,0.01,106.000000,,2013-09-23 23:12:00,
2013-09-23 15:22:00,43.0,35.0,-100.00,North,352,10.0,33.0,72,0.01,,,0.01,106.000000,,2013-09-23 23:22:00,
2013-09-23 15:54:00,45.0,34.0,-100.00,NNE,15,4.0,20.0,65,0.00,,,0.01,182.199997,,2013-09-23 23:54:00,
2013-09-23 16:01:00,45.0,34.0,-100.00,NNE,15,4.0,20.0,65,0.00,,,0.01,182.199997,,2013-09-24 00:01:00,
2013-09-23 16:11:00,45.0,34.0,-100.00,NNE,15,4.0,20.0,65,0.00,,,0.01,182.199997,,2013-09-24 00:11:00,
2013-09-23 16:22:00,45.0,34.0,-100.00,NNE,15,4.0,20.0,65,0.00,,,0.01,182.199997,,2013-09-24 00:22:00,
2013-09-23 16:52:00,46.0,28.0,-100.00,North,10,8.0,28.0,49,0.00,,,0.01,174.399994,,2013-09-24 00:52:00,
2013-09-23 17:01:00,46.0,28.0,-100.00,North,10,8.0,28.0,49,0.00,,,0.01,174.399994,,2013-09-24 01:01:00,
2013-09-23 17:12:00,46.0,28.0,-100.00,North,10,8.0,28.0,49,0.00,,,0.01,174.399994,,2013-09-24 01:12:00,
2013-09-23 17:21:00,46.0,28.0,-100.00,North,10,8.0,28.0,49,0.00,,,0.01,174.399994,,2013-09-24 01:21:00,
2013-09-23 17:52:00,47.0,27.0,-100.00,NE,46,6.0,30.0,47,0.00,,,0.01,122.300003,,2013-09-24 01:52:00,
2013-09-23 18:02:00,47.0,27.0,-100.00,NE,46,6.0,30.0,47,0.00,,,0.01,122.300003,,2013-09-24 02:02:00,
2013-09-23 18:12:00,47.0,27.0,-100.00,NE,46,6.0,30.0,47,0.00,,,0.01,122.300003,,2013-09-24 02:12:00,
2013-09-23 18:22:00,47.0,27.0,-100.00,NE,46,6.0,30.0,47,0.00,,,0.01,122.300003,,2013-09-24 02:22:00,
2013-09-23 18:52:00,46.0,26.0,-100.00,NNW,328,9.0,24.0,44,0.00,,,0.01,96.599998,,2013-09-24 02:52:00,
2013-09-23 19:02:00,46.0,26.0,-100.00,NNW,328,9.0,24.0,44,0.00,,,0.01,96.599998,,2013-09-24 03:02:00,
2013-09-23 19:12:00,46.0,26.0,-100.00,NNW,328,9.0,24.0,44,0.00,,,0.01,96.599998,,2013-09-24 03:12:00,
2013-09-23 19:21:00,46.0,26.0,-100.00,NNW,328,9.0,24.0,44,0.00,,,0.01,96.599998,,2013-09-24 03:21:00,
2013-09-23 19:54:00,45.0,23.0,-100.00,NNW,332,21.0,33.0,41,0.00,,,0.01,70.000000,,2013-09-24 03:54:00,
2013-09-23 20:04:00,45.0,23.0,-100.00,NNW,332,21.0,33.0,41,0.00,,,0.01,70.000000,,2013-09-24 04:04:00,
2013-09-23 20:14:00,45.0,23.0,-100.00,NNW,332,21.0,33.0,41,0.00,,,0.01,70.000000,,2013-09-24 04:14:00,
2013-09-23 20:23:00,45.0,23.0,-100.00,NNW,332,21.0,33.0,41,0.00,,,0.01,70.000000,,2013-09-24 04:23:00,
2013-09-23 21:13:00,46.0,21.0,-100.00,NW,321,35.0,46.0,37,0.00,,,0.01,7.900000,,2013-09-24 05:13:00,
2013-09-23 21:22:00,46.0,21.0,-100.00,NW,321,35.0,46.0,37,0.00,,,0.01,7.900000,,2013-09-24 05:22:00,